.
WxDataArchive / Data Records for 2010-09-04
2010-09-03 September 2010 2010-09-05

Data Records for Saturday, 04 September 2010

Time	Temp	Chill	HIndex	Humid	Dewpt	 Wind 	HiWind	WindDir	Rain 	Barom 
-----	----	-----	------	-----	-----	------	------	-------	-----	----- 
00:00	63.1	63.1	63.1	59	48.5	4	9	270	0.00	29.805 
00:05	63.1	63.1	63.1	59	48.5	3	6	292	0.00	29.805 
00:10	62.9	62.9	62.9	60	48.8	4	7	270	0.00	29.805 
00:15	62.7	62.7	62.7	60	48.6	3	7	270	0.00	29.804 
00:20	62.6	62.6	62.6	60	48.5	4	7	270	0.00	29.804 
00:25	62.6	62.6	62.6	60	48.5	4	7	270	0.00	29.804 
00:30	62.4	62.4	62.4	61	48.8	4	7	270	0.00	29.806 
00:35	62.3	62.3	62.3	61	48.7	3	8	270	0.00	29.806 
00:40	62.3	62.3	62.3	61	48.7	3	10	270	0.00	29.806 
00:45	62.3	62.3	62.3	61	48.7	3	6	270	0.00	29.805 
00:50	62.3	62.3	62.3	62	49.1	2	4	270	0.00	29.805 
00:55	62.1	62.1	62.1	62	48.9	3	6	270	0.00	29.805 
01:00	62.1	62.1	62.1	62	48.9	2	5	270	0.00	29.802 
01:05	62.0	62.0	62.0	62	48.8	2	5	270	0.00	29.802 
01:10	61.8	61.8	61.8	62	48.6	3	5	270	0.00	29.802 
01:15	61.6	61.6	61.6	63	48.9	2	5	270	0.00	29.804 
01:20	61.3	61.3	61.3	63	48.6	2	5	270	0.00	29.804 
01:25	61.2	61.2	61.2	64	48.9	2	5	270	0.00	29.804 
01:30	61.0	61.0	61.0	64	48.7	2	4	270	0.00	29.804 
01:35	60.9	60.9	60.9	64	48.6	2	5	270	0.00	29.804 
01:40	60.7	60.7	60.7	65	48.9	3	6	270	0.00	29.804 
01:45	60.5	60.5	60.5	65	48.7	2	5	270	0.00	29.804 
01:50	60.5	60.5	60.5	65	48.7	3	6	270	0.00	29.804 
01:55	60.4	60.4	60.4	66	49.0	2	6	270	0.00	29.804 
02:00	60.4	60.4	60.4	66	49.0	2	6	248	0.00	29.804 
02:05	60.2	60.2	60.2	67	49.2	3	6	270	0.00	29.804 
02:10	60.1	60.1	60.1	67	49.1	2	6	270	0.00	29.804 
02:15	59.8	59.8	59.8	68	49.2	2	4	248	0.00	29.805 
02:20	59.6	59.6	59.6	68	49.0	2	5	248	0.00	29.805 
02:25	59.5	59.5	59.5	69	49.3	2	4	270	0.00	29.805 
02:30	59.3	59.3	59.3	69	49.1	2	5	248	0.00	29.803 
02:35	59.2	59.2	59.2	69	49.0	2	6	270	0.00	29.803 
02:40	59.0	59.0	59.0	69	48.8	2	5	270	0.00	29.803 
02:45	58.9	58.9	58.9	70	49.1	2	6	270	0.00	29.804 
02:50	58.7	58.7	58.7	70	48.9	2	5	270	0.00	29.804 
02:55	58.6	58.6	58.6	71	49.2	2	5	270	0.00	29.804 
03:00	58.4	58.4	58.4	71	49.0	1	4	270	0.00	29.806 
03:05	58.3	58.3	58.3	72	49.3	1	4	292	0.00	29.806 
03:10	58.3	58.3	58.3	72	49.3	2	5	270	0.00	29.806 
03:15	58.1	58.1	58.1	72	49.1	1	4	270	0.00	29.808 
03:20	58.0	58.0	58.0	73	49.4	2	6	270	0.00	29.808 
03:25	57.8	57.8	57.8	73	49.2	2	6	270	0.00	29.808 
03:30	57.6	57.6	57.6	74	49.4	2	5	270	0.00	29.806 
03:35	57.5	57.5	57.5	74	49.3	2	4	270	0.00	29.806 
03:40	57.3	57.3	57.3	75	49.4	2	6	270	0.00	29.806 
03:45	57.2	57.2	57.2	75	49.3	1	5	270	0.00	29.807 
03:50	57.0	57.0	57.0	76	49.5	2	4	270	0.00	29.807 
03:55	56.9	56.9	56.9	76	49.4	1	6	270	0.00	29.807 
04:00	56.9	56.9	56.9	77	49.8	1	4	270	0.00	29.808 
04:05	56.7	56.7	56.7	77	49.6	1	6	270	0.00	29.808 
04:10	56.6	56.6	56.6	77	49.5	1	3	270	0.00	29.808 
04:15	56.5	56.5	56.5	78	49.7	1	3	270	0.00	29.811 
04:20	56.6	56.6	56.6	78	49.8	1	5	270	0.00	29.811 
04:25	56.6	56.6	56.6	78	49.8	1	4	248	0.00	29.811 
04:30	56.6	56.6	56.6	78	49.8	2	5	270	0.00	29.815 
04:35	56.6	56.6	56.6	78	49.8	2	4	248	0.00	29.815 
04:40	56.6	56.6	56.6	78	49.8	1	4	248	0.00	29.815 
04:45	56.6	56.6	56.6	78	49.8	1	3	270	0.00	29.818 
04:50	56.6	56.6	56.6	79	50.2	1	5	270	0.00	29.818 
04:55	56.5	56.5	56.5	79	50.1	2	5	270	0.00	29.818 
05:00	56.5	56.5	56.5	79	50.1	2	6	270	0.00	29.820 
05:05	56.3	56.3	56.3	79	49.9	2	5	270	0.00	29.820 
05:10	56.2	56.2	56.2	80	50.1	2	5	270	0.00	29.820 
05:15	56.2	56.2	56.2	80	50.1	3	6	270	0.00	29.822 
05:20	56.0	56.0	56.0	80	49.9	2	5	270	0.00	29.822 
05:25	55.9	55.9	55.9	81	50.2	2	4	292	0.00	29.822 
05:30	55.7	55.7	55.7	81	50.0	2	4	292	0.00	29.824 
05:35	55.7	55.7	55.7	81	50.0	1	4	292	0.00	29.824 
05:40	55.7	55.7	55.7	82	50.3	1	5	292	0.00	29.824 
05:45	55.7	55.7	55.7	82	50.3	1	4	270	0.00	29.824 
05:50	55.6	55.6	55.6	82	50.2	1	3	270	0.00	29.824 
05:55	55.3	55.3	55.3	82	49.9	0	3	270	0.00	29.824 
06:00	55.1	55.1	55.1	82	49.7	0	4	270	0.00	29.828 
06:05	55.1	55.1	55.1	83	50.0	1	5	270	0.00	29.828 
06:10	55.0	55.0	55.0	83	49.9	1	4	270	0.00	29.828 
06:15	54.8	54.8	54.8	83	49.7	1	4	270	0.00	29.831 
06:20	54.8	54.8	54.8	83	49.7	1	4	270	0.00	29.831 
06:25	54.7	54.7	54.7	83	49.6	1	3	292	0.00	29.831 
06:30	54.7	54.7	54.7	83	49.6	1	3	292	0.00	29.839 
06:35	54.7	54.7	54.7	83	49.6	1	4	292	0.00	29.839 
06:40	54.7	54.7	54.7	83	49.6	1	4	292	0.00	29.839 
06:45	54.7	54.7	54.7	84	50.0	1	4	292	0.00	29.846 
06:50	54.5	54.5	54.5	84	49.8	1	4	292	0.00	29.846 
06:55	54.5	54.5	54.5	84	49.8	1	4	270	0.00	29.846 
07:00	54.5	54.5	54.5	85	50.1	1	3	248	0.00	29.848 
07:05	54.5	54.5	54.5	85	50.1	1	3	248	0.00	29.848 
07:10	54.5	54.5	54.5	85	50.1	1	3	248	0.00	29.848 
07:15	54.5	54.5	54.5	85	50.1	1	3	248	0.00	29.843 
07:20	54.5	54.5	54.5	85	50.1	1	3	292	0.00	29.843 
07:25	54.4	54.4	54.4	85	50.0	0	4	270	0.00	29.843 
07:30	54.4	54.4	54.4	86	50.3	1	3	270	0.00	29.846 
07:35	54.4	54.4	54.4	86	50.3	1	3	270	0.00	29.846 
07:40	54.4	54.4	54.4	86	50.3	1	4	270	0.00	29.846 
07:45	54.5	54.5	54.5	86	50.4	1	4	270	0.00	29.855 
07:50	54.7	54.7	54.7	85	50.3	2	4	248	0.00	29.855 
07:55	55.0	55.0	55.0	85	50.6	2	4	270	0.00	29.855 
08:00	55.1	55.1	55.1	84	50.4	1	4	292	0.00	29.860 
08:05	55.3	55.3	55.3	84	50.5	1	5	248	0.00	29.860 
08:10	55.4	55.4	55.4	83	50.3	2	4	248	0.00	29.860 
08:15	55.6	55.6	55.6	82	50.2	2	5	270	0.00	29.863 
08:20	55.6	55.6	55.6	82	50.2	1	4	270	0.00	29.863 
08:25	55.6	55.6	55.6	82	50.2	3	6	270	0.00	29.863 
08:30	55.6	55.6	55.6	82	50.2	3	7	270	0.00	29.875 
08:35	55.4	55.4	55.4	82	50.0	2	5	292	0.00	29.875 
08:40	55.4	55.4	55.4	82	50.0	2	5	270	0.00	29.875 
08:45	55.4	55.4	55.4	82	50.0	2	6	270	0.00	29.879 
08:50	55.4	55.4	55.4	82	50.0	2	4	270	0.00	29.879 
08:55	55.7	55.7	55.7	82	50.3	3	6	270	0.00	29.879 
09:00	56.0	56.0	56.0	81	50.3	2	5	270	0.00	29.877 
09:05	56.3	56.3	56.3	81	50.5	3	5	270	0.00	29.877 
09:10	56.7	56.7	56.7	80	50.6	2	6	270	0.00	29.877 
09:15	57.2	57.2	57.2	78	50.4	2	5	292	0.00	29.875 
09:20	57.5	57.5	57.5	77	50.3	3	6	270	0.00	29.875 
09:25	57.8	57.8	57.8	76	50.3	2	6	270	0.00	29.875 
09:30	58.1	58.1	58.1	75	50.2	3	7	270	0.00	29.877 
09:35	58.7	58.7	58.7	73	50.1	2	5	270	0.00	29.877 
09:40	58.4	58.4	58.4	69	48.3	4	6	270	0.00	29.877 
09:45	58.1	58.1	58.1	68	47.6	4	10	270	0.00	29.887 
09:50	58.6	58.6	58.6	69	48.5	2	6	270	0.00	29.887 
09:55	59.2	59.2	59.2	68	48.6	2	4	315	0.00	29.887 
10:00	59.8	59.8	59.8	63	47.2	3	7	270	0.00	29.889 
10:05	59.9	59.9	59.9	61	46.4	4	7	270	0.00	29.889 
10:10	59.5	59.5	59.5	60	45.6	4	10	315	0.00	29.889 
10:15	59.5	59.5	59.5	60	45.6	2	5	270	0.00	29.897 
10:20	60.1	60.1	60.1	58	45.3	3	9	315	0.00	29.897 
10:25	60.2	60.2	60.2	56	44.4	4	12	270	0.00	29.897 
10:30	60.1	60.1	60.1	56	44.3	4	9	270	0.00	29.905 
10:35	60.7	60.7	60.7	54	44.0	3	7	315	0.00	29.905 
10:40	60.5	60.5	60.5	55	44.2	3	9	270	0.00	29.905 
10:45	60.5	60.5	60.5	57	45.2	3	7	270	0.00	29.909 
10:50	60.4	60.4	60.4	58	45.6	3	7	270	0.00	29.909 
10:55	60.5	60.5	60.5	59	46.1	3	7	270	0.00	29.909 
11:00	61.2	61.2	61.2	53	43.9	4	9	315	0.00	29.915 
11:05	61.3	61.3	61.3	54	44.5	3	9	270	0.00	29.915 
11:10	61.6	61.6	61.6	53	44.3	4	9	270	0.00	29.915 
11:15	61.3	61.3	61.3	56	45.5	5	10	270	0.00	29.921 
11:20	62.1	62.1	62.1	54	45.3	3	10	270	0.00	29.921 
11:25	62.4	62.4	62.4	50	43.5	4	9	292	0.00	29.921 
11:30	63.1	63.1	63.1	51	44.7	3	6	270	0.00	29.922 
11:35	63.1	63.1	63.1	50	44.2	3	6	270	0.00	29.922 
11:40	62.6	62.6	62.6	51	44.2	3	6	270	0.00	29.922 
11:45	62.7	62.7	62.7	51	44.3	3	9	270	0.00	29.921 
11:50	63.1	63.1	63.1	52	45.2	3	10	270	0.00	29.921 
11:55	63.5	63.5	63.5	46	42.3	4	11	270	0.00	29.921 
12:00	63.4	63.4	63.4	48	43.4	4	9	270	0.00	29.922 
12:05	62.4	62.4	62.4	49	43.0	5	9	270	0.00	29.922 
12:10	62.7	62.7	62.7	48	42.7	4	9	270	0.00	29.922 
12:15	63.1	63.1	63.1	46	42.0	4	7	270	0.00	29.924 
12:20	63.9	63.9	63.9	44	41.6	4	10	270	0.00	29.924 
12:25	63.2	63.2	63.2	47	42.6	5	9	270	0.00	29.924 
12:30	63.4	63.4	63.4	47	42.8	3	6	270	0.00	29.923 
12:35	64.2	64.2	64.2	43	41.2	2	6	270	0.00	29.923 
12:40	64.0	64.0	64.0	43	41.1	4	10	292	0.00	29.923 
12:45	63.9	63.9	63.9	45	42.1	4	10	270	0.00	29.922 
12:50	64.0	64.0	64.0	45	42.2	3	9	270	0.00	29.922 
12:55	63.2	63.2	63.2	43	40.3	4	10	315	0.00	29.922 
13:00	63.2	63.2	63.2	46	42.1	2	5	292	0.00	29.925 
13:05	64.0	64.0	64.0	45	42.2	4	9	292	0.00	29.925 
13:10	63.7	63.7	63.7	46	42.5	2	6	315	0.00	29.925 
13:15	63.5	63.5	63.5	46	42.3	3	7	270	0.00	29.929 
13:20	63.5	63.5	63.5	45	41.8	3	7	292	0.00	29.929 
13:25	64.2	64.2	64.2	44	41.8	3	9	270	0.00	29.929 
13:30	64.7	64.7	64.7	43	41.7	4	7	270	0.00	29.924 
13:35	64.7	64.7	64.7	43	41.7	4	7	292	0.00	29.924 
13:40	64.0	64.0	64.0	43	41.1	4	7	270	0.00	29.924 
13:45	64.5	64.5	64.5	43	41.5	4	9	270	0.00	29.924 
13:50	65.2	65.2	65.2	42	41.5	4	7	270	0.00	29.924 
13:55	65.5	65.5	65.5	43	42.4	4	8	270	0.00	29.924 
14:00	65.5	65.5	65.5	40	40.5	3	7	270	0.00	29.923 
14:05	65.2	65.2	65.2	42	41.5	3	10	270	0.00	29.923 
14:10	65.2	65.2	65.2	41	40.9	4	11	270	0.00	29.923 
14:15	64.7	64.7	64.7	41	40.5	5	9	270	0.00	29.933 
14:20	65.2	65.2	65.2	42	41.5	4	7	292	0.00	29.933 
14:25	65.3	65.3	65.3	42	41.6	4	7	315	0.00	29.933 
14:30	64.8	64.8	64.8	42	41.2	4	10	270	0.00	29.929 
14:35	65.3	65.3	65.3	42	41.6	2	6	315	0.00	29.929 
14:40	65.8	65.8	65.8	41	41.4	4	6	270	0.00	29.929 
14:45	65.8	65.8	65.8	40	40.8	4	7	270	0.00	29.927 
14:50	65.6	65.6	65.6	39	40.0	5	9	270	0.00	29.927 
14:55	65.8	65.8	65.8	41	41.4	3	8	270	0.00	29.927 
15:00	65.6	65.6	65.6	41	41.3	4	12	270	0.00	29.925 
15:05	65.6	65.6	65.6	41	41.3	4	7	270	0.00	29.925 
15:10	66.0	66.0	66.0	39	40.3	4	9	270	0.00	29.925 
15:15	66.1	66.1	66.1	39	40.4	4	7	270	0.00	29.928 
15:20	66.0	66.0	66.0	40	41.0	4	8	270	0.00	29.928 
15:25	65.8	65.8	65.8	40	40.8	2	5	270	0.00	29.928 
15:30	65.8	65.8	65.8	38	39.5	4	10	315	0.00	29.925 
15:35	66.1	66.1	66.1	39	40.4	4	9	270	0.00	29.925 
15:40	65.8	65.8	65.8	38	39.5	3	8	315	0.00	29.925 
15:45	65.8	65.8	65.8	37	38.8	3	7	292	0.00	29.921 
15:50	66.0	66.0	66.0	39	40.3	3	10	315	0.00	29.921 
15:55	65.8	65.8	65.8	38	39.5	4	10	270	0.00	29.921 
16:00	66.1	66.1	66.1	39	40.4	4	10	270	0.00	29.915 
16:05	65.8	65.8	65.8	38	39.5	4	9	270	0.00	29.915 
16:10	65.3	65.3	65.3	39	39.7	3	7	292	0.00	29.915 
16:15	65.0	65.0	65.0	39	39.4	3	7	315	0.00	29.919 
16:20	64.8	64.8	64.8	39	39.3	4	9	270	0.00	29.919 
16:25	65.2	65.2	65.2	39	39.6	3	6	315	0.00	29.919 
16:30	65.2	65.2	65.2	39	39.6	3	8	315	0.00	29.915 
16:35	65.8	65.8	65.8	39	40.1	3	7	270	0.00	29.915 
16:40	65.5	65.5	65.5	38	39.2	4	9	315	0.00	29.915 
16:45	65.3	65.3	65.3	39	39.7	4	6	315	0.00	29.918 
16:50	65.6	65.6	65.6	39	40.0	3	6	270	0.00	29.918 
16:55	65.6	65.6	65.6	39	40.0	2	6	292	0.00	29.918 
17:00	65.5	65.5	65.5	38	39.2	4	10	270	0.00	29.917 
17:05	65.6	65.6	65.6	40	40.6	3	6	270	0.00	29.917 
17:10	65.8	65.8	65.8	39	40.1	3	7	270	0.00	29.917 
17:15	65.6	65.6	65.6	40	40.6	3	6	315	0.00	29.915 
17:20	65.6	65.6	65.6	40	40.6	2	5	292	0.00	29.915 
17:25	65.6	65.6	65.6	39	40.0	2	6	315	0.00	29.915 
17:30	66.0	66.0	66.0	38	39.7	3	7	270	0.00	29.913 
17:35	66.0	66.0	66.0	39	40.3	4	7	270	0.00	29.913 
17:40	66.1	66.1	66.1	39	40.4	2	6	270	0.00	29.913 
17:45	66.0	66.0	66.0	40	41.0	2	5	270	0.00	29.920 
17:50	65.8	65.8	65.8	40	40.8	3	6	270	0.00	29.920 
17:55	66.1	66.1	66.1	39	40.4	1	2	338	0.00	29.920 
18:00	66.0	66.0	66.0	40	41.0	2	6	315	0.00	29.918 
18:05	65.5	65.5	65.5	39	39.9	2	6	315	0.00	29.918 
18:10	64.8	64.8	64.8	40	39.9	2	5	270	0.00	29.918 
18:15	64.5	64.5	64.5	41	40.3	1	5	292	0.00	29.917 
18:20	64.5	64.5	64.5	40	39.6	2	7	315	0.00	29.917 
18:25	64.7	64.7	64.7	40	39.8	2	5	315	0.00	29.917 
18:30	64.7	64.7	64.7	41	40.5	2	7	270	0.00	29.919 
18:35	64.7	64.7	64.7	41	40.5	1	3	292	0.00	29.919 
18:40	64.7	64.7	64.7	42	41.1	2	4	292	0.00	29.919 
18:45	64.7	64.7	64.7	41	40.5	1	3	292	0.00	29.920 
18:50	64.5	64.5	64.5	41	40.3	2	4	315	0.00	29.920 
18:55	64.3	64.3	64.3	42	40.7	3	5	270	0.00	29.920 
19:00	64.3	64.3	64.3	43	41.3	1	3	292	0.00	29.927 
19:05	64.5	64.5	64.5	42	40.9	3	6	315	0.00	29.927 
19:10	64.3	64.3	64.3	43	41.3	2	5	315	0.00	29.927 
19:15	64.0	64.0	64.0	43	41.1	2	10	315	0.00	29.929 
19:20	63.5	63.5	63.5	44	41.2	1	3	315	0.00	29.929 
19:25	63.4	63.4	63.4	45	41.7	0	2	315	0.00	29.929 
19:30	63.1	63.1	63.1	44	40.8	1	4	292	0.00	29.934 
19:35	63.1	63.1	63.1	45	41.4	1	4	270	0.00	29.934 
19:40	63.1	63.1	63.1	45	41.4	1	2	292	0.00	29.934 
19:45	63.1	63.1	63.1	45	41.4	1	2	292	0.00	29.934 
19:50	62.9	62.9	62.9	46	41.8	1	4	292	0.00	29.934 
19:55	62.6	62.6	62.6	46	41.5	1	3	315	0.00	29.934 
20:00	62.4	62.4	62.4	46	41.3	1	4	292	0.00	29.939 
20:05	62.1	62.1	62.1	47	41.6	0	1	292	0.00	29.939 
20:10	61.8	61.8	61.8	48	41.9	0	1	292	0.00	29.939 
20:15	61.5	61.5	61.5	49	42.2	0	2	292	0.00	29.942 
20:20	61.2	61.2	61.2	49	41.9	0	1	292	0.00	29.942 
20:25	61.0	61.0	61.0	50	42.2	0	0	---	0.00	29.942 
20:30	60.5	60.5	60.5	51	42.3	0	0	---	0.00	29.947 
20:35	60.2	60.2	60.2	52	42.5	0	0	---	0.00	29.947 
20:40	59.9	59.9	59.9	53	42.7	0	1	292	0.00	29.947 
20:45	59.8	59.8	59.8	53	42.6	0	0	---	0.00	29.951 
20:50	59.6	59.6	59.6	54	42.9	0	0	---	0.00	29.951 
20:55	59.3	59.3	59.3	55	43.1	0	0	---	0.00	29.951 
21:00	59.0	59.0	59.0	56	43.3	0	0	---	0.00	29.960 
21:05	58.7	58.7	58.7	56	43.0	0	0	---	0.00	29.960 
21:10	58.4	58.4	58.4	58	43.7	0	0	---	0.00	29.960 
21:15	58.1	58.1	58.1	58	43.4	0	0	---	0.00	29.959 
21:20	57.8	57.8	57.8	59	43.6	0	0	---	0.00	29.959 
21:25	57.5	57.5	57.5	60	43.7	0	0	---	0.00	29.959 
21:30	57.2	57.2	57.2	61	43.9	0	0	---	0.00	29.962 
21:35	56.7	56.7	56.7	62	43.8	0	0	---	0.00	29.962 
21:40	56.3	56.3	56.3	62	43.4	0	0	---	0.00	29.962 
21:45	56.0	56.0	56.0	63	43.6	0	0	---	0.00	29.967 
21:50	55.6	55.6	55.6	65	44.0	0	0	---	0.00	29.967 
21:55	55.3	55.3	55.3	66	44.1	0	0	---	0.00	29.967 
22:00	55.0	55.0	55.0	66	43.9	0	0	---	0.00	29.976 
22:05	54.7	54.7	54.7	68	44.3	0	0	---	0.00	29.976 
22:10	54.2	54.2	54.2	68	43.9	0	0	---	0.00	29.976 
22:15	53.9	53.9	53.9	70	44.3	0	0	---	0.00	29.979 
22:20	53.8	53.8	53.8	71	44.6	0	0	---	0.00	29.979 
22:25	53.5	53.5	53.5	72	44.7	0	0	---	0.00	29.979 
22:30	53.3	53.3	53.3	73	44.9	0	0	---	0.00	29.979 
22:35	53.2	53.2	53.2	73	44.8	0	0	---	0.00	29.979 
22:40	52.9	52.9	52.9	74	44.8	0	0	---	0.00	29.979 
22:45	52.8	52.8	52.8	76	45.4	0	0	---	0.00	29.980 
22:50	52.5	52.5	52.5	77	45.5	0	0	---	0.00	29.980 
22:55	52.3	52.3	52.3	77	45.3	0	0	---	0.00	29.980 
23:00	52.2	52.2	52.2	78	45.5	0	0	---	0.00	29.990 
23:05	52.0	52.0	52.0	78	45.4	0	0	---	0.00	29.990 
23:10	51.9	51.9	51.9	79	45.6	0	0	---	0.00	29.990 
23:15	51.7	51.7	51.7	79	45.4	0	0	---	0.00	29.990 
23:20	51.7	51.7	51.7	79	45.4	0	0	---	0.00	29.990 
23:25	51.6	51.6	51.6	80	45.6	0	0	---	0.00	29.990 
23:30	51.4	51.4	51.4	80	45.4	0	0	---	0.00	29.991 
23:35	51.3	51.3	51.3	80	45.3	0	0	---	0.00	29.991 
23:40	51.1	51.1	51.1	80	45.1	0	0	---	0.00	29.991 
23:45	51.1	51.1	51.1	81	45.5	0	0	---	0.00	29.993 
23:50	51.0	51.0	51.0	81	45.4	0	0	---	0.00	29.993 
23:55	50.8	50.8	50.8	82	45.5	0	0	---	0.00	29.993 

CoCoRaHS
IN-AL-39
A2 Web Hosting
Creative Commons License
GoDaddy
search engine by freefind advanced

loaded 2018-11-20 08:59:43 • last modified 2010-11-18 10:43:29
Privacy PolicyDisclaimer
• wx.awcolley.com is powered by PmWiki v.2002016 •
• all content (unless otherwise noted) © 2018 A W Colley